sensor_id;sensor_type;location;lat;lon;timestamp;P1;durP1;ratioP1;P2;durP2;ratioP2
84373;SDS011;74563;52.206;14.630;2024-03-07T00:00:06;57.65;;;22.05;;
84373;SDS011;74563;52.206;14.630;2024-03-07T00:02:47;52.10;;;23.52;;
84373;SDS011;74563;52.206;14.630;2024-03-07T00:05:13;55.63;;;23.63;;
84373;SDS011;74563;52.206;14.630;2024-03-07T00:07:39;56.97;;;24.05;;
84373;SDS011;74563;52.206;14.630;2024-03-07T00:12:32;68.82;;;29.73;;
84373;SDS011;74563;52.206;14.630;2024-03-07T00:15:00;59.63;;;23.23;;
84373;SDS011;74563;52.206;14.630;2024-03-07T00:17:25;58.13;;;22.80;;
84373;SDS011;74563;52.206;14.630;2024-03-07T00:19:51;63.73;;;23.17;;
84373;SDS011;74563;52.206;14.630;2024-03-07T00:22:16;57.42;;;21.90;;
84373;SDS011;74563;52.206;14.630;2024-03-07T00:24:42;62.23;;;25.27;;
84373;SDS011;74563;52.206;14.630;2024-03-07T00:27:08;56.30;;;20.23;;
84373;SDS011;74563;52.206;14.630;2024-03-07T00:29:33;57.85;;;23.98;;
84373;SDS011;74563;52.206;14.630;2024-03-07T00:32:00;62.25;;;23.85;;
84373;SDS011;74563;52.206;14.630;2024-03-07T00:34:26;53.92;;;20.60;;
84373;SDS011;74563;52.206;14.630;2024-03-07T00:36:51;55.50;;;22.27;;
84373;SDS011;74563;52.206;14.630;2024-03-07T00:39:17;66.85;;;23.98;;
84373;SDS011;74563;52.206;14.630;2024-03-07T00:41:42;59.80;;;23.27;;
84373;SDS011;74563;52.206;14.630;2024-03-07T00:44:08;42.37;;;17.43;;
84373;SDS011;74563;52.206;14.630;2024-03-07T00:49:01;58.47;;;23.00;;
84373;SDS011;74563;52.206;14.630;2024-03-07T00:51:26;62.72;;;22.90;;
84373;SDS011;74563;52.206;14.630;2024-03-07T00:53:51;68.50;;;25.57;;
84373;SDS011;74563;52.206;14.630;2024-03-07T00:56:16;62.57;;;24.23;;
84373;SDS011;74563;52.206;14.630;2024-03-07T00:58:42;66.57;;;25.07;;
84373;SDS011;74563;52.206;14.630;2024-03-07T01:01:07;66.13;;;25.10;;
84373;SDS011;74563;52.206;14.630;2024-03-07T01:03:33;72.03;;;26.08;;
84373;SDS011;74563;52.206;14.630;2024-03-07T01:05:58;64.77;;;23.87;;
84373;SDS011;74563;52.206;14.630;2024-03-07T01:08:24;71.72;;;25.10;;
84373;SDS011;74563;52.206;14.630;2024-03-07T01:10:49;73.47;;;26.58;;
84373;SDS011;74563;52.206;14.630;2024-03-07T01:13:14;74.53;;;26.23;;
84373;SDS011;74563;52.206;14.630;2024-03-07T01:15:44;69.70;;;26.08;;
84373;SDS011;74563;52.206;14.630;2024-03-07T01:18:10;68.63;;;24.25;;
84373;SDS011;74563;52.206;14.630;2024-03-07T01:20:35;68.50;;;25.77;;
84373;SDS011;74563;52.206;14.630;2024-03-07T01:23:01;71.65;;;25.67;;
84373;SDS011;74563;52.206;14.630;2024-03-07T01:25:26;80.23;;;26.07;;
84373;SDS011;74563;52.206;14.630;2024-03-07T01:27:52;77.47;;;27.02;;
84373;SDS011;74563;52.206;14.630;2024-03-07T01:30:17;72.60;;;25.08;;
84373;SDS011;74563;52.206;14.630;2024-03-07T01:32:42;65.15;;;23.98;;
84373;SDS011;74563;52.206;14.630;2024-03-07T01:35:08;72.57;;;25.67;;
84373;SDS011;74563;52.206;14.630;2024-03-07T01:37:33;62.05;;;22.90;;
84373;SDS011;74563;52.206;14.630;2024-03-07T01:39:58;62.87;;;24.53;;
84373;SDS011;74563;52.206;14.630;2024-03-07T01:42:24;68.17;;;24.77;;
84373;SDS011;74563;52.206;14.630;2024-03-07T01:44:50;68.35;;;25.55;;
84373;SDS011;74563;52.206;14.630;2024-03-07T01:47:16;73.03;;;26.45;;
84373;SDS011;74563;52.206;14.630;2024-03-07T01:49:42;71.50;;;25.08;;
84373;SDS011;74563;52.206;14.630;2024-03-07T01:52:08;81.35;;;26.77;;
84373;SDS011;74563;52.206;14.630;2024-03-07T01:54:37;75.68;;;24.73;;
84373;SDS011;74563;52.206;14.630;2024-03-07T01:57:03;68.93;;;24.60;;
84373;SDS011;74563;52.206;14.630;2024-03-07T01:59:29;62.97;;;22.58;;
84373;SDS011;74563;52.206;14.630;2024-03-07T02:01:55;66.70;;;24.13;;
84373;SDS011;74563;52.206;14.630;2024-03-07T02:04:21;60.65;;;22.25;;
84373;SDS011;74563;52.206;14.630;2024-03-07T02:06:47;60.92;;;22.83;;
84373;SDS011;74563;52.206;14.630;2024-03-07T02:09:12;55.45;;;21.15;;
84373;SDS011;74563;52.206;14.630;2024-03-07T02:11:39;50.00;;;21.13;;
84373;SDS011;74563;52.206;14.630;2024-03-07T02:14:04;55.97;;;22.05;;
84373;SDS011;74563;52.206;14.630;2024-03-07T02:16:30;59.53;;;22.47;;
84373;SDS011;74563;52.206;14.630;2024-03-07T02:18:56;61.85;;;22.38;;
84373;SDS011;74563;52.206;14.630;2024-03-07T02:21:22;59.45;;;22.40;;
84373;SDS011;74563;52.206;14.630;2024-03-07T02:23:48;60.15;;;23.38;;
84373;SDS011;74563;52.206;14.630;2024-03-07T02:26:13;66.80;;;23.53;;
84373;SDS011;74563;52.206;14.630;2024-03-07T02:28:38;58.22;;;21.65;;
84373;SDS011;74563;52.206;14.630;2024-03-07T02:31:04;61.83;;;22.20;;
84373;SDS011;74563;52.206;14.630;2024-03-07T02:33:29;58.22;;;22.13;;
84373;SDS011;74563;52.206;14.630;2024-03-07T02:35:57;57.90;;;21.50;;
84373;SDS011;74563;52.206;14.630;2024-03-07T02:38:22;62.20;;;22.88;;
84373;SDS011;74563;52.206;14.630;2024-03-07T02:40:48;55.83;;;21.87;;
84373;SDS011;74563;52.206;14.630;2024-03-07T02:43:13;61.73;;;21.80;;
84373;SDS011;74563;52.206;14.630;2024-03-07T02:45:38;56.60;;;21.90;;
84373;SDS011;74563;52.206;14.630;2024-03-07T02:48:04;57.50;;;23.30;;
84373;SDS011;74563;52.206;14.630;2024-03-07T02:50:34;59.17;;;22.67;;
84373;SDS011;74563;52.206;14.630;2024-03-07T02:52:59;58.63;;;21.87;;
84373;SDS011;74563;52.206;14.630;2024-03-07T02:55:24;61.63;;;22.43;;
84373;SDS011;74563;52.206;14.630;2024-03-07T02:57:49;62.43;;;23.63;;
84373;SDS011;74563;52.206;14.630;2024-03-07T03:00:15;56.17;;;21.70;;
84373;SDS011;74563;52.206;14.630;2024-03-07T03:02:51;60.33;;;21.92;;
84373;SDS011;74563;52.206;14.630;2024-03-07T03:05:17;56.60;;;21.40;;
84373;SDS011;74563;52.206;14.630;2024-03-07T03:07:43;57.80;;;21.73;;
84373;SDS011;74563;52.206;14.630;2024-03-07T03:10:17;55.53;;;22.17;;
84373;SDS011;74563;52.206;14.630;2024-03-07T03:12:43;56.83;;;21.95;;
84373;SDS011;74563;52.206;14.630;2024-03-07T03:15:09;55.58;;;21.05;;
84373;SDS011;74563;52.206;14.630;2024-03-07T03:17:36;55.78;;;20.85;;
84373;SDS011;74563;52.206;14.630;2024-03-07T03:20:02;56.20;;;21.05;;
84373;SDS011;74563;52.206;14.630;2024-03-07T03:24:59;62.50;;;21.87;;
84373;SDS011;74563;52.206;14.630;2024-03-07T03:29:51;60.47;;;22.27;;
84373;SDS011;74563;52.206;14.630;2024-03-07T03:32:16;66.30;;;23.00;;
84373;SDS011;74563;52.206;14.630;2024-03-07T03:34:42;62.20;;;22.83;;
84373;SDS011;74563;52.206;14.630;2024-03-07T03:37:07;75.35;;;25.33;;
84373;SDS011;74563;52.206;14.630;2024-03-07T03:39:34;75.20;;;23.85;;
84373;SDS011;74563;52.206;14.630;2024-03-07T03:41:59;73.65;;;25.20;;
84373;SDS011;74563;52.206;14.630;2024-03-07T03:44:24;78.27;;;26.33;;
84373;SDS011;74563;52.206;14.630;2024-03-07T03:46:49;79.00;;;26.87;;
84373;SDS011;74563;52.206;14.630;2024-03-07T03:49:15;69.13;;;23.83;;
84373;SDS011;74563;52.206;14.630;2024-03-07T03:51:40;70.07;;;23.00;;
84373;SDS011;74563;52.206;14.630;2024-03-07T03:54:06;72.83;;;22.80;;
84373;SDS011;74563;52.206;14.630;2024-03-07T03:56:31;62.80;;;22.57;;
84373;SDS011;74563;52.206;14.630;2024-03-07T03:58:57;65.65;;;23.20;;
84373;SDS011;74563;52.206;14.630;2024-03-07T04:01:22;63.73;;;22.70;;
84373;SDS011;74563;52.206;14.630;2024-03-07T04:03:48;58.65;;;22.33;;
84373;SDS011;74563;52.206;14.630;2024-03-07T04:06:13;58.23;;;20.77;;
84373;SDS011;74563;52.206;14.630;2024-03-07T04:08:39;55.90;;;20.47;;
84373;SDS011;74563;52.206;14.630;2024-03-07T04:11:04;59.33;;;22.05;;
84373;SDS011;74563;52.206;14.630;2024-03-07T04:13:30;57.83;;;21.17;;
84373;SDS011;74563;52.206;14.630;2024-03-07T04:15:56;54.22;;;20.90;;
84373;SDS011;74563;52.206;14.630;2024-03-07T04:18:22;54.77;;;21.13;;
84373;SDS011;74563;52.206;14.630;2024-03-07T04:20:47;58.35;;;21.63;;
84373;SDS011;74563;52.206;14.630;2024-03-07T04:23:13;57.75;;;21.63;;
84373;SDS011;74563;52.206;14.630;2024-03-07T04:25:38;52.27;;;20.40;;
84373;SDS011;74563;52.206;14.630;2024-03-07T04:28:03;55.13;;;20.75;;
84373;SDS011;74563;52.206;14.630;2024-03-07T04:32:55;53.50;;;19.75;;
84373;SDS011;74563;52.206;14.630;2024-03-07T04:35:21;48.35;;;18.98;;
84373;SDS011;74563;52.206;14.630;2024-03-07T04:37:46;51.17;;;21.42;;
84373;SDS011;74563;52.206;14.630;2024-03-07T04:40:12;50.97;;;18.93;;
84373;SDS011;74563;52.206;14.630;2024-03-07T04:42:41;51.25;;;19.38;;
84373;SDS011;74563;52.206;14.630;2024-03-07T04:45:14;51.80;;;19.08;;
84373;SDS011;74563;52.206;14.630;2024-03-07T04:47:40;56.42;;;20.88;;
84373;SDS011;74563;52.206;14.630;2024-03-07T04:50:07;54.83;;;20.42;;
84373;SDS011;74563;52.206;14.630;2024-03-07T04:52:35;51.45;;;19.33;;
84373;SDS011;74563;52.206;14.630;2024-03-07T04:55:00;58.70;;;21.30;;
84373;SDS011;74563;52.206;14.630;2024-03-07T04:57:26;51.03;;;19.80;;
84373;SDS011;74563;52.206;14.630;2024-03-07T04:59:52;53.50;;;20.38;;
84373;SDS011;74563;52.206;14.630;2024-03-07T05:02:17;46.87;;;19.40;;
84373;SDS011;74563;52.206;14.630;2024-03-07T05:04:42;50.83;;;19.70;;
84373;SDS011;74563;52.206;14.630;2024-03-07T05:07:08;47.78;;;19.67;;
84373;SDS011;74563;52.206;14.630;2024-03-07T05:09:33;45.77;;;18.13;;
84373;SDS011;74563;52.206;14.630;2024-03-07T05:11:58;45.80;;;19.37;;
84373;SDS011;74563;52.206;14.630;2024-03-07T05:14:24;47.67;;;18.83;;
84373;SDS011;74563;52.206;14.630;2024-03-07T05:16:52;46.05;;;18.85;;
84373;SDS011;74563;52.206;14.630;2024-03-07T05:19:30;50.50;;;19.52;;
84373;SDS011;74563;52.206;14.630;2024-03-07T05:21:58;49.45;;;20.25;;
84373;SDS011;74563;52.206;14.630;2024-03-07T05:24:24;82.47;;;29.33;;
84373;SDS011;74563;52.206;14.630;2024-03-07T05:26:49;53.87;;;20.13;;
84373;SDS011;74563;52.206;14.630;2024-03-07T05:29:14;49.55;;;21.10;;
84373;SDS011;74563;52.206;14.630;2024-03-07T05:31:42;46.65;;;17.60;;
84373;SDS011;74563;52.206;14.630;2024-03-07T05:34:14;43.70;;;17.67;;
84373;SDS011;74563;52.206;14.630;2024-03-07T05:36:45;47.40;;;18.42;;
84373;SDS011;74563;52.206;14.630;2024-03-07T05:41:38;46.03;;;16.85;;
84373;SDS011;74563;52.206;14.630;2024-03-07T05:44:04;42.53;;;17.98;;
84373;SDS011;74563;52.206;14.630;2024-03-07T05:46:36;44.78;;;18.20;;
84373;SDS011;74563;52.206;14.630;2024-03-07T05:49:06;44.35;;;17.42;;
84373;SDS011;74563;52.206;14.630;2024-03-07T05:51:31;42.88;;;17.75;;
84373;SDS011;74563;52.206;14.630;2024-03-07T05:53:57;54.33;;;19.17;;
84373;SDS011;74563;52.206;14.630;2024-03-07T05:56:22;43.97;;;18.17;;
84373;SDS011;74563;52.206;14.630;2024-03-07T05:58:47;46.28;;;17.83;;
84373;SDS011;74563;52.206;14.630;2024-03-07T06:01:13;43.90;;;17.57;;
84373;SDS011;74563;52.206;14.630;2024-03-07T06:03:39;40.70;;;16.03;;
84373;SDS011;74563;52.206;14.630;2024-03-07T06:06:04;48.05;;;18.60;;
84373;SDS011;74563;52.206;14.630;2024-03-07T06:08:32;39.58;;;17.25;;
84373;SDS011;74563;52.206;14.630;2024-03-07T06:10:57;43.80;;;17.60;;
84373;SDS011;74563;52.206;14.630;2024-03-07T06:13:23;44.87;;;18.20;;
84373;SDS011;74563;52.206;14.630;2024-03-07T06:15:48;38.23;;;17.13;;
84373;SDS011;74563;52.206;14.630;2024-03-07T06:18:13;42.03;;;17.23;;
84373;SDS011;74563;52.206;14.630;2024-03-07T06:20:40;32.03;;;12.75;;
84373;SDS011;74563;52.206;14.630;2024-03-07T06:25:31;37.53;;;15.60;;
84373;SDS011;74563;52.206;14.630;2024-03-07T06:28:12;43.20;;;17.77;;
84373;SDS011;74563;52.206;14.630;2024-03-07T06:30:38;41.72;;;16.27;;
84373;SDS011;74563;52.206;14.630;2024-03-07T06:33:05;46.05;;;18.80;;
84373;SDS011;74563;52.206;14.630;2024-03-07T06:35:31;36.85;;;15.98;;
84373;SDS011;74563;52.206;14.630;2024-03-07T06:37:56;43.77;;;17.90;;
84373;SDS011;74563;52.206;14.630;2024-03-07T06:40:21;43.88;;;17.98;;
84373;SDS011;74563;52.206;14.630;2024-03-07T06:42:47;43.95;;;18.25;;
84373;SDS011;74563;52.206;14.630;2024-03-07T06:45:17;41.45;;;17.88;;
84373;SDS011;74563;52.206;14.630;2024-03-07T06:47:43;39.13;;;17.00;;
84373;SDS011;74563;52.206;14.630;2024-03-07T06:50:08;38.42;;;16.05;;
84373;SDS011;74563;52.206;14.630;2024-03-07T06:52:34;44.80;;;17.05;;
84373;SDS011;74563;52.206;14.630;2024-03-07T06:55:01;49.17;;;20.38;;
84373;SDS011;74563;52.206;14.630;2024-03-07T06:57:28;41.97;;;17.00;;
84373;SDS011;74563;52.206;14.630;2024-03-07T06:59:54;44.00;;;19.17;;
84373;SDS011;74563;52.206;14.630;2024-03-07T07:02:20;46.15;;;17.55;;
84373;SDS011;74563;52.206;14.630;2024-03-07T07:04:45;43.27;;;16.10;;
84373;SDS011;74563;52.206;14.630;2024-03-07T07:07:12;46.17;;;18.02;;
84373;SDS011;74563;52.206;14.630;2024-03-07T07:12:04;37.72;;;14.40;;
84373;SDS011;74563;52.206;14.630;2024-03-07T07:14:30;41.40;;;16.42;;
84373;SDS011;74563;52.206;14.630;2024-03-07T07:16:55;41.83;;;17.20;;
84373;SDS011;74563;52.206;14.630;2024-03-07T07:19:24;40.03;;;16.92;;
84373;SDS011;74563;52.206;14.630;2024-03-07T07:21:50;47.80;;;18.27;;
84373;SDS011;74563;52.206;14.630;2024-03-07T07:24:18;38.90;;;16.77;;
84373;SDS011;74563;52.206;14.630;2024-03-07T07:26:44;38.33;;;15.02;;
84373;SDS011;74563;52.206;14.630;2024-03-07T07:29:10;41.97;;;17.08;;
84373;SDS011;74563;52.206;14.630;2024-03-07T07:31:35;42.17;;;17.23;;
84373;SDS011;74563;52.206;14.630;2024-03-07T07:34:01;44.20;;;18.30;;
84373;SDS011;74563;52.206;14.630;2024-03-07T07:36:29;45.60;;;17.67;;
84373;SDS011;74563;52.206;14.630;2024-03-07T07:38:54;44.72;;;18.85;;
84373;SDS011;74563;52.206;14.630;2024-03-07T07:41:19;26.20;;;12.23;;
84373;SDS011;74563;52.206;14.630;2024-03-07T07:43:45;36.47;;;17.20;;
84373;SDS011;74563;52.206;14.630;2024-03-07T07:46:10;44.87;;;16.80;;
84373;SDS011;74563;52.206;14.630;2024-03-07T07:48:35;40.30;;;17.00;;
84373;SDS011;74563;52.206;14.630;2024-03-07T07:51:00;38.03;;;16.83;;
84373;SDS011;74563;52.206;14.630;2024-03-07T07:53:26;38.57;;;17.13;;
84373;SDS011;74563;52.206;14.630;2024-03-07T07:55:51;37.70;;;16.73;;
84373;SDS011;74563;52.206;14.630;2024-03-07T07:58:16;35.23;;;14.53;;
84373;SDS011;74563;52.206;14.630;2024-03-07T08:00:41;34.97;;;14.43;;
84373;SDS011;74563;52.206;14.630;2024-03-07T08:03:09;36.85;;;16.35;;
84373;SDS011;74563;52.206;14.630;2024-03-07T08:05:36;31.75;;;14.23;;
84373;SDS011;74563;52.206;14.630;2024-03-07T08:08:08;35.08;;;16.08;;
84373;SDS011;74563;52.206;14.630;2024-03-07T08:10:36;31.90;;;15.05;;
84373;SDS011;74563;52.206;14.630;2024-03-07T08:13:02;33.28;;;15.02;;
84373;SDS011;74563;52.206;14.630;2024-03-07T08:15:29;31.85;;;14.82;;
84373;SDS011;74563;52.206;14.630;2024-03-07T08:17:56;37.15;;;15.70;;
84373;SDS011;74563;52.206;14.630;2024-03-07T08:22:48;33.10;;;15.27;;
84373;SDS011;74563;52.206;14.630;2024-03-07T08:25:21;30.65;;;13.57;;
84373;SDS011;74563;52.206;14.630;2024-03-07T08:27:49;28.17;;;12.60;;
84373;SDS011;74563;52.206;14.630;2024-03-07T08:30:15;32.85;;;14.52;;
84373;SDS011;74563;52.206;14.630;2024-03-07T08:32:50;23.33;;;11.77;;
84373;SDS011;74563;52.206;14.630;2024-03-07T08:35:17;29.90;;;13.68;;
84373;SDS011;74563;52.206;14.630;2024-03-07T08:37:43;29.67;;;13.60;;
84373;SDS011;74563;52.206;14.630;2024-03-07T08:40:19;28.90;;;13.20;;
84373;SDS011;74563;52.206;14.630;2024-03-07T08:42:49;28.73;;;14.23;;
84373;SDS011;74563;52.206;14.630;2024-03-07T08:45:16;30.63;;;13.65;;
84373;SDS011;74563;52.206;14.630;2024-03-07T08:47:44;27.65;;;13.32;;
84373;SDS011;74563;52.206;14.630;2024-03-07T08:50:14;27.48;;;12.25;;
84373;SDS011;74563;52.206;14.630;2024-03-07T08:52:41;29.48;;;13.35;;
84373;SDS011;74563;52.206;14.630;2024-03-07T08:55:07;25.20;;;11.95;;
84373;SDS011;74563;52.206;14.630;2024-03-07T08:57:37;27.02;;;12.27;;
84373;SDS011;74563;52.206;14.630;2024-03-07T09:00:03;25.85;;;13.10;;
84373;SDS011;74563;52.206;14.630;2024-03-07T09:02:33;25.05;;;12.27;;
84373;SDS011;74563;52.206;14.630;2024-03-07T09:04:59;31.23;;;13.30;;
84373;SDS011;74563;52.206;14.630;2024-03-07T09:07:25;26.67;;;11.32;;
84373;SDS011;74563;52.206;14.630;2024-03-07T09:09:50;25.10;;;11.60;;
84373;SDS011;74563;52.206;14.630;2024-03-07T09:12:16;24.67;;;12.27;;
84373;SDS011;74563;52.206;14.630;2024-03-07T09:14:41;23.83;;;11.57;;
84373;SDS011;74563;52.206;14.630;2024-03-07T09:17:06;24.13;;;12.37;;
84373;SDS011;74563;52.206;14.630;2024-03-07T09:19:31;24.70;;;11.33;;
84373;SDS011;74563;52.206;14.630;2024-03-07T09:21:57;27.88;;;12.77;;
84373;SDS011;74563;52.206;14.630;2024-03-07T09:24:22;24.80;;;12.33;;
84373;SDS011;74563;52.206;14.630;2024-03-07T09:26:51;23.80;;;10.20;;
84373;SDS011;74563;52.206;14.630;2024-03-07T09:29:18;23.10;;;11.38;;
84373;SDS011;74563;52.206;14.630;2024-03-07T09:31:44;25.55;;;10.82;;
84373;SDS011;74563;52.206;14.630;2024-03-07T09:34:10;24.80;;;12.05;;
84373;SDS011;74563;52.206;14.630;2024-03-07T09:36:37;25.23;;;11.43;;
84373;SDS011;74563;52.206;14.630;2024-03-07T09:39:02;22.42;;;11.65;;
84373;SDS011;74563;52.206;14.630;2024-03-07T09:41:28;22.90;;;11.07;;
84373;SDS011;74563;52.206;14.630;2024-03-07T09:43:53;24.45;;;12.13;;
84373;SDS011;74563;52.206;14.630;2024-03-07T09:46:23;22.40;;;10.35;;
84373;SDS011;74563;52.206;14.630;2024-03-07T09:48:49;24.45;;;10.95;;
84373;SDS011;74563;52.206;14.630;2024-03-07T09:51:19;22.55;;;10.68;;
84373;SDS011;74563;52.206;14.630;2024-03-07T09:56:11;25.38;;;10.98;;
84373;SDS011;74563;52.206;14.630;2024-03-07T09:58:39;17.10;;;9.60;;
84373;SDS011;74563;52.206;14.630;2024-03-07T10:01:06;19.83;;;11.00;;
84373;SDS011;74563;52.206;14.630;2024-03-07T10:03:35;36.08;;;21.90;;
84373;SDS011;74563;52.206;14.630;2024-03-07T10:06:00;21.63;;;10.35;;
84373;SDS011;74563;52.206;14.630;2024-03-07T10:08:26;19.92;;;10.88;;
84373;SDS011;74563;52.206;14.630;2024-03-07T10:10:53;19.50;;;10.13;;
84373;SDS011;74563;52.206;14.630;2024-03-07T10:13:19;20.75;;;10.35;;
84373;SDS011;74563;52.206;14.630;2024-03-07T10:15:47;19.25;;;10.02;;
84373;SDS011;74563;52.206;14.630;2024-03-07T10:18:13;16.90;;;9.15;;
84373;SDS011;74563;52.206;14.630;2024-03-07T10:20:39;21.65;;;11.80;;
84373;SDS011;74563;52.206;14.630;2024-03-07T10:23:04;20.10;;;10.88;;
84373;SDS011;74563;52.206;14.630;2024-03-07T10:25:32;20.25;;;10.80;;
84373;SDS011;74563;52.206;14.630;2024-03-07T10:27:58;20.20;;;10.98;;
84373;SDS011;74563;52.206;14.630;2024-03-07T10:30:23;18.80;;;10.05;;
84373;SDS011;74563;52.206;14.630;2024-03-07T10:32:57;16.98;;;9.02;;
84373;SDS011;74563;52.206;14.630;2024-03-07T10:35:24;24.20;;;14.18;;
84373;SDS011;74563;52.206;14.630;2024-03-07T10:37:53;21.25;;;10.88;;
84373;SDS011;74563;52.206;14.630;2024-03-07T10:40:19;17.77;;;9.63;;
84373;SDS011;74563;52.206;14.630;2024-03-07T10:42:46;19.52;;;9.60;;
84373;SDS011;74563;52.206;14.630;2024-03-07T10:45:17;20.35;;;10.93;;
84373;SDS011;74563;52.206;14.630;2024-03-07T10:47:43;21.10;;;9.70;;
84373;SDS011;74563;52.206;14.630;2024-03-07T10:50:19;17.75;;;9.32;;
84373;SDS011;74563;52.206;14.630;2024-03-07T10:52:58;20.45;;;10.80;;
84373;SDS011;74563;52.206;14.630;2024-03-07T10:55:34;20.85;;;11.20;;
84373;SDS011;74563;52.206;14.630;2024-03-07T10:58:09;19.70;;;9.98;;
84373;SDS011;74563;52.206;14.630;2024-03-07T11:00:38;18.73;;;9.95;;
84373;SDS011;74563;52.206;14.630;2024-03-07T11:03:11;20.13;;;10.13;;
84373;SDS011;74563;52.206;14.630;2024-03-07T11:05:39;17.60;;;9.13;;
84373;SDS011;74563;52.206;14.630;2024-03-07T11:08:05;18.40;;;10.43;;
84373;SDS011;74563;52.206;14.630;2024-03-07T11:10:36;19.42;;;9.75;;
84373;SDS011;74563;52.206;14.630;2024-03-07T11:13:02;21.58;;;11.82;;
84373;SDS011;74563;52.206;14.630;2024-03-07T11:15:29;18.20;;;10.05;;
84373;SDS011;74563;52.206;14.630;2024-03-07T11:17:56;22.10;;;10.90;;
84373;SDS011;74563;52.206;14.630;2024-03-07T11:20:24;21.20;;;10.07;;
84373;SDS011;74563;52.206;14.630;2024-03-07T11:22:51;18.83;;;10.15;;
84373;SDS011;74563;52.206;14.630;2024-03-07T11:25:20;19.50;;;9.88;;
84373;SDS011;74563;52.206;14.630;2024-03-07T11:27:57;19.13;;;10.15;;
84373;SDS011;74563;52.206;14.630;2024-03-07T11:30:24;15.00;;;8.77;;
84373;SDS011;74563;52.206;14.630;2024-03-07T11:32:50;19.85;;;10.27;;
84373;SDS011;74563;52.206;14.630;2024-03-07T11:35:18;20.08;;;9.48;;
84373;SDS011;74563;52.206;14.630;2024-03-07T11:37:50;18.52;;;9.88;;
84373;SDS011;74563;52.206;14.630;2024-03-07T11:42:49;20.90;;;9.85;;
84373;SDS011;74563;52.206;14.630;2024-03-07T11:45:15;18.75;;;9.18;;
84373;SDS011;74563;52.206;14.630;2024-03-07T11:47:51;16.35;;;8.50;;
84373;SDS011;74563;52.206;14.630;2024-03-07T11:50:26;21.08;;;11.00;;
84373;SDS011;74563;52.206;14.630;2024-03-07T11:52:55;15.75;;;8.13;;
84373;SDS011;74563;52.206;14.630;2024-03-07T11:55:21;18.27;;;9.88;;
84373;SDS011;74563;52.206;14.630;2024-03-07T11:57:47;20.17;;;10.38;;
84373;SDS011;74563;52.206;14.630;2024-03-07T12:00:14;19.35;;;10.05;;
84373;SDS011;74563;52.206;14.630;2024-03-07T12:02:41;18.70;;;9.32;;
84373;SDS011;74563;52.206;14.630;2024-03-07T12:05:08;24.35;;;11.95;;
84373;SDS011;74563;52.206;14.630;2024-03-07T12:07:34;20.52;;;11.05;;
84373;SDS011;74563;52.206;14.630;2024-03-07T12:10:00;18.02;;;10.82;;
84373;SDS011;74563;52.206;14.630;2024-03-07T12:12:28;17.42;;;9.18;;
84373;SDS011;74563;52.206;14.630;2024-03-07T12:14:54;18.92;;;10.23;;
84373;SDS011;74563;52.206;14.630;2024-03-07T12:17:20;18.35;;;9.88;;
84373;SDS011;74563;52.206;14.630;2024-03-07T12:19:46;17.52;;;9.65;;
84373;SDS011;74563;52.206;14.630;2024-03-07T12:22:12;17.77;;;9.23;;
84373;SDS011;74563;52.206;14.630;2024-03-07T12:24:41;18.30;;;8.85;;
84373;SDS011;74563;52.206;14.630;2024-03-07T12:27:10;19.88;;;10.00;;
84373;SDS011;74563;52.206;14.630;2024-03-07T12:29:37;14.20;;;7.85;;
84373;SDS011;74563;52.206;14.630;2024-03-07T12:32:07;18.77;;;10.00;;
84373;SDS011;74563;52.206;14.630;2024-03-07T12:34:36;16.08;;;7.88;;
84373;SDS011;74563;52.206;14.630;2024-03-07T12:37:05;18.08;;;9.77;;
84373;SDS011;74563;52.206;14.630;2024-03-07T12:39:34;14.60;;;8.10;;
84373;SDS011;74563;52.206;14.630;2024-03-07T12:42:11;19.08;;;9.80;;
84373;SDS011;74563;52.206;14.630;2024-03-07T12:44:41;18.80;;;9.65;;
84373;SDS011;74563;52.206;14.630;2024-03-07T12:47:10;19.50;;;10.07;;
84373;SDS011;74563;52.206;14.630;2024-03-07T12:49:35;16.77;;;8.93;;
84373;SDS011;74563;52.206;14.630;2024-03-07T12:52:01;19.90;;;11.30;;
84373;SDS011;74563;52.206;14.630;2024-03-07T12:54:26;20.85;;;10.68;;
84373;SDS011;74563;52.206;14.630;2024-03-07T12:56:52;20.70;;;10.80;;
84373;SDS011;74563;52.206;14.630;2024-03-07T12:59:17;20.55;;;10.38;;
84373;SDS011;74563;52.206;14.630;2024-03-07T13:01:45;18.60;;;9.48;;
84373;SDS011;74563;52.206;14.630;2024-03-07T13:04:12;21.58;;;11.02;;
84373;SDS011;74563;52.206;14.630;2024-03-07T13:06:39;21.73;;;11.38;;
84373;SDS011;74563;52.206;14.630;2024-03-07T13:09:08;20.63;;;10.45;;
84373;SDS011;74563;52.206;14.630;2024-03-07T13:11:35;20.42;;;9.70;;
84373;SDS011;74563;52.206;14.630;2024-03-07T13:14:05;17.00;;;9.30;;
84373;SDS011;74563;52.206;14.630;2024-03-07T13:18:57;19.17;;;10.17;;
84373;SDS011;74563;52.206;14.630;2024-03-07T13:21:22;16.77;;;9.23;;
84373;SDS011;74563;52.206;14.630;2024-03-07T13:26:12;18.23;;;9.60;;
84373;SDS011;74563;52.206;14.630;2024-03-07T13:28:45;16.60;;;8.55;;
84373;SDS011;74563;52.206;14.630;2024-03-07T13:31:12;21.15;;;10.88;;
84373;SDS011;74563;52.206;14.630;2024-03-07T13:33:37;19.90;;;10.63;;
84373;SDS011;74563;52.206;14.630;2024-03-07T13:36:03;22.08;;;10.73;;
84373;SDS011;74563;52.206;14.630;2024-03-07T13:38:29;31.45;;;19.02;;
84373;SDS011;74563;52.206;14.630;2024-03-07T13:40:55;15.82;;;8.52;;
84373;SDS011;74563;52.206;14.630;2024-03-07T13:43:22;19.58;;;9.88;;
84373;SDS011;74563;52.206;14.630;2024-03-07T13:45:47;20.33;;;9.70;;
84373;SDS011;74563;52.206;14.630;2024-03-07T13:48:13;20.23;;;11.03;;
84373;SDS011;74563;52.206;14.630;2024-03-07T13:50:39;20.17;;;9.77;;
84373;SDS011;74563;52.206;14.630;2024-03-07T13:53:09;18.67;;;9.93;;
84373;SDS011;74563;52.206;14.630;2024-03-07T13:55:55;18.00;;;9.75;;
84373;SDS011;74563;52.206;14.630;2024-03-07T14:09:17;20.60;;;10.23;;
84373;SDS011;74563;52.206;14.630;2024-03-07T14:17:52;20.83;;;10.43;;
84373;SDS011;74563;52.206;14.630;2024-03-07T14:20:33;18.83;;;9.60;;
84373;SDS011;74563;52.206;14.630;2024-03-07T14:26:20;22.58;;;10.82;;
84373;SDS011;74563;52.206;14.630;2024-03-07T14:31:41;18.58;;;8.15;;
84373;SDS011;74563;52.206;14.630;2024-03-07T14:34:14;19.73;;;10.32;;
84373;SDS011;74563;52.206;14.630;2024-03-07T14:36:57;19.10;;;9.68;;
84373;SDS011;74563;52.206;14.630;2024-03-07T14:39:34;18.45;;;8.90;;
84373;SDS011;74563;52.206;14.630;2024-03-07T14:42:01;19.80;;;10.23;;
84373;SDS011;74563;52.206;14.630;2024-03-07T14:44:30;15.98;;;8.23;;
84373;SDS011;74563;52.206;14.630;2024-03-07T14:46:57;21.10;;;10.20;;
84373;SDS011;74563;52.206;14.630;2024-03-07T14:49:26;21.10;;;10.27;;
84373;SDS011;74563;52.206;14.630;2024-03-07T14:54:18;17.40;;;8.18;;
84373;SDS011;74563;52.206;14.630;2024-03-07T14:56:45;20.30;;;10.07;;
84373;SDS011;74563;52.206;14.630;2024-03-07T14:59:11;19.38;;;9.43;;
84373;SDS011;74563;52.206;14.630;2024-03-07T15:01:37;18.27;;;9.13;;
84373;SDS011;74563;52.206;14.630;2024-03-07T15:04:03;23.08;;;10.13;;
84373;SDS011;74563;52.206;14.630;2024-03-07T15:06:31;15.20;;;7.70;;